Time;durP1;ratioP1;P1;durP2;ratioP2;P2;SDS_P1;SDS_P2;PMS_P1;PMS_P2;Temp;Humidity;BMP_temperature;BMP_pressure;BME280_temperature;BME280_humidity;BME280_pressure;Samples;Min_cycle;Max_cycle;Signal;HPM_P1;HPM_P2
2024/03/27 00:00:32;;;;;;;7.55;4.68;;;;;;;1.35;100.00;95859.19;6111637;19;20733;-70
2024/03/27 00:02:32;;;;;;;8.18;4.85;;;;;;;1.28;100.00;95865.38;6110223;19;20011;-70
2024/03/27 00:04:33;;;;;;;7.60;5.03;;;;;;;1.23;100.00;95868.44;6110227;19;20007;-70
2024/03/27 00:06:33;;;;;;;6.55;4.25;;;;;;;1.20;100.00;95857.53;6109507;19;20034;-70
2024/03/27 00:08:34;;;;;;;8.40;4.95;;;;;;;1.16;100.00;95856.72;6099078;19;20006;-70
2024/03/27 00:10:34;;;;;;;6.45;4.55;;;;;;;1.07;100.00;95852.41;6110577;19;20007;-70
2024/03/27 00:12:34;;;;;;;9.57;5.50;;;;;;;1.04;100.00;95841.50;6110096;19;20348;-70
2024/03/27 00:14:35;;;;;;;8.05;4.80;;;;;;;0.98;100.00;95843.78;6110005;19;20013;-70
2024/03/27 00:16:35;;;;;;;6.57;4.85;;;;;;;0.99;100.00;95847.28;6109254;19;20010;-70
2024/03/27 00:18:35;;;;;;;7.95;5.30;;;;;;;1.02;100.00;95841.88;6108626;19;20348;-70
2024/03/27 00:20:36;;;;;;;8.68;5.10;;;;;;;1.06;100.00;95837.22;6110182;19;20018;-70
2024/03/27 00:22:36;;;;;;;8.20;5.20;;;;;;;1.01;100.00;95828.66;6107554;19;20496;-70
2024/03/27 00:24:37;;;;;;;7.93;5.05;;;;;;;0.99;100.00;95826.28;6110224;19;20031;-70
2024/03/27 00:26:38;;;;;;;8.95;5.50;;;;;;;1.00;100.00;95827.88;6109565;19;20078;-70
2024/03/27 00:28:38;;;;;;;8.52;5.22;;;;;;;0.99;100.00;95829.00;6108267;19;20339;-70
2024/03/27 00:30:38;;;;;;;7.40;4.97;;;;;;;0.99;100.00;95826.28;6109713;19;20018;-70
2024/03/27 00:32:39;;;;;;;6.18;4.30;;;;;;;1.01;100.00;95826.72;6109733;19;20074;-70
2024/03/27 00:34:39;;;;;;;6.82;4.40;;;;;;;0.99;100.00;95817.34;6110127;19;20062;-70
2024/03/27 00:36:39;;;;;;;10.02;5.03;;;;;;;0.97;100.00;95820.44;6109054;19;20040;-70
2024/03/27 00:38:39;;;;;;;6.65;4.72;;;;;;;0.99;100.00;95817.34;6108509;19;20022;-70
2024/03/27 00:40:40;;;;;;;9.65;5.47;;;;;;;0.95;100.00;95820.06;6110886;19;20244;-70
2024/03/27 00:42:40;;;;;;;8.30;5.18;;;;;;;0.95;100.00;95814.59;6109029;19;20014;-70
2024/03/27 00:44:40;;;;;;;7.53;4.78;;;;;;;0.89;100.00;95807.94;6110277;19;20542;-70
2024/03/27 00:46:41;;;;;;;10.00;5.30;;;;;;;0.83;100.00;95809.50;6109998;19;20034;-70
2024/03/27 00:48:41;;;;;;;9.10;5.47;;;;;;;0.76;100.00;95814.88;6108267;19;20059;-70
2024/03/27 00:50:41;;;;;;;10.70;5.80;;;;;;;0.70;100.00;95814.44;6109410;19;20006;-70
2024/03/27 00:52:42;;;;;;;6.68;4.45;;;;;;;0.68;100.00;95808.59;6109406;19;20018;-70
2024/03/27 00:54:42;;;;;;;8.38;5.20;;;;;;;0.68;100.00;95814.06;6109899;19;20011;-70
2024/03/27 00:56:43;;;;;;;9.23;5.25;;;;;;;0.60;100.00;95815.16;6108550;19;20350;-70
2024/03/27 00:58:43;;;;;;;8.93;5.22;;;;;;;0.52;100.00;95806.16;6109921;19;20038;-70
2024/03/27 01:00:44;;;;;;;9.45;5.32;;;;;;;0.51;100.00;95814.72;6109380;19;20006;-70
2024/03/27 01:02:45;;;;;;;8.38;5.05;;;;;;;0.48;100.00;95815.44;6109000;19;20280;-70
2024/03/27 01:04:49;;;;;;;8.55;5.28;;;;;;;0.44;100.00;95801.81;6107867;19;20094;-70
2024/03/27 01:06:49;;;;;;;7.95;4.55;;;;;;;0.47;100.00;95811.94;6107831;19;20014;-70
2024/03/27 01:08:49;;;;;;;10.82;5.20;;;;;;;0.44;100.00;95807.28;6106997;19;20024;-70
2024/03/27 01:10:51;;;;;;;10.55;5.22;;;;;;;0.50;100.00;95813.94;6101263;19;20015;-70
2024/03/27 01:12:51;;;;;;;10.00;5.18;;;;;;;0.49;100.00;95815.06;6100522;19;20487;-70
2024/03/27 01:14:51;;;;;;;7.88;4.97;;;;;;;0.47;100.00;95811.94;6101999;19;20002;-70
2024/03/27 01:16:52;;;;;;;9.27;4.72;;;;;;;0.47;100.00;95811.16;6098247;19;20003;-70
2024/03/27 01:18:52;;;;;;;9.70;4.78;;;;;;;0.41;100.00;95799.84;6100340;19;20003;-70
2024/03/27 01:20:52;;;;;;;7.20;4.45;;;;;;;0.36;100.00;95794.78;6101409;19;20002;-70
2024/03/27 01:22:53;;;;;;;7.47;4.90;;;;;;;0.35;100.00;95803.31;6100390;19;20030;-70
2024/03/27 01:24:53;;;;;;;6.95;4.63;;;;;;;0.34;100.00;95804.47;6099179;19;19999;-70
2024/03/27 01:26:53;;;;;;;8.50;4.70;;;;;;;0.35;100.00;95811.47;6099191;19;20002;-70
2024/03/27 01:28:54;;;;;;;9.02;5.20;;;;;;;0.40;100.00;95811.09;6100255;19;20002;-70
2024/03/27 01:30:54;;;;;;;7.90;4.63;;;;;;;0.50;100.00;95811.22;6100412;19;20025;-70
2024/03/27 01:32:56;;;;;;;9.18;4.65;;;;;;;0.55;100.00;95805.41;6098572;19;20046;-71
2024/03/27 01:34:56;;;;;;;9.32;5.28;;;;;;;0.55;100.00;95807.34;6100740;19;20027;-70
2024/03/27 01:36:57;;;;;;;8.20;5.13;;;;;;;0.54;100.00;95795.69;6097309;19;20014;-70
2024/03/27 01:38:57;;;;;;;7.03;4.60;;;;;;;0.49;100.00;95789.78;6100152;19;20459;-70
2024/03/27 01:40:57;;;;;;;8.00;5.07;;;;;;;0.42;100.00;95787.06;6100476;19;20006;-70
2024/03/27 01:42:59;;;;;;;7.43;4.53;;;;;;;0.41;100.00;95796.34;6099793;19;20021;-70
2024/03/27 01:44:59;;;;;;;6.75;4.68;;;;;;;0.40;100.00;95789.34;6099721;19;20014;-70
2024/03/27 01:46:59;;;;;;;8.30;5.53;;;;;;;0.41;100.00;95785.47;6097738;19;20006;-70
2024/03/27 01:49:00;;;;;;;7.68;5.00;;;;;;;0.41;100.00;95780.81;6100317;19;20033;-70
2024/03/27 01:51:00;;;;;;;7.03;4.60;;;;;;;0.40;100.00;95787.41;6101140;19;20018;-70
2024/03/27 01:53:02;;;;;;;7.18;5.03;;;;;;;0.49;100.00;95793.28;6099910;19;20062;-70
2024/03/27 01:55:03;;;;;;;7.25;4.70;;;;;;;0.60;100.00;95787.94;6101227;19;20042;-70
2024/03/27 01:57:04;;;;;;;8.27;4.63;;;;;;;0.67;100.00;95788.00;6098287;19;20041;-70
2024/03/27 01:59:05;;;;;;;9.30;5.13;;;;;;;0.76;100.00;95788.44;6100686;19;20044;-70
2024/03/27 02:01:05;;;;;;;7.07;4.80;;;;;;;0.78;100.00;95783.41;6098866;19;20011;-70
2024/03/27 02:03:07;;;;;;;7.28;4.78;;;;;;;0.84;100.00;95775.66;6099691;19;20006;-70
2024/03/27 02:05:08;;;;;;;6.28;4.45;;;;;;;0.84;100.00;95772.94;6099380;19;20022;-70
2024/03/27 02:07:09;;;;;;;8.98;5.22;;;;;;;0.89;100.00;95766.34;6096281;19;20007;-70
2024/03/27 02:09:09;;;;;;;8.57;5.07;;;;;;;0.88;100.00;95760.13;6097708;19;19999;-70
2024/03/27 02:11:10;;;;;;;7.25;4.68;;;;;;;0.79;100.00;95751.53;6107892;19;20006;-70
2024/03/27 02:13:10;;;;;;;8.40;4.53;;;;;;;0.74;100.00;95746.41;6104646;19;20351;-70
2024/03/27 02:15:12;;;;;;;8.45;5.22;;;;;;;0.70;100.00;95751.06;6107221;19;20006;-70
2024/03/27 02:17:13;;;;;;;8.30;4.88;;;;;;;0.63;100.00;95738.22;6105287;19;20099;-70
2024/03/27 02:19:13;;;;;;;9.35;5.00;;;;;;;0.51;100.00;95731.16;6106752;19;20006;-70
2024/03/27 02:21:14;;;;;;;7.30;4.60;;;;;;;0.47;100.00;95730.34;6106383;19;20019;-70
2024/03/27 02:23:20;;;;;;;7.93;4.90;;;;;;;0.45;100.00;95731.88;6107477;19;20010;-70
2024/03/27 02:25:26;;;;;;;9.40;4.93;;;;;;;0.50;100.00;95726.88;6107113;19;20010;-70
2024/03/27 02:27:27;;;;;;;8.88;5.32;;;;;;;0.49;100.00;95721.78;6104205;19;20002;-71
2024/03/27 02:29:27;;;;;;;6.80;4.63;;;;;;;0.41;100.00;95712.03;6105924;19;20331;-71
2024/03/27 02:31:28;;;;;;;9.23;5.40;;;;;;;0.33;100.00;95716.63;6105963;19;20455;-71
2024/03/27 02:33:28;;;;;;;7.95;5.07;;;;;;;0.26;100.00;95711.16;6105967;19;20009;-71
2024/03/27 02:35:29;;;;;;;10.57;4.85;;;;;;;0.29;100.00;95710.41;6107306;19;20483;-71
2024/03/27 02:37:29;;;;;;;7.13;4.95;;;;;;;0.37;100.00;95719.38;6103970;19;20005;-71
2024/03/27 02:39:30;;;;;;;10.88;5.20;;;;;;;0.39;100.00;95717.06;6105425;19;20006;-71
2024/03/27 02:41:30;;;;;;;8.98;5.20;;;;;;;0.39;100.00;95714.34;6105978;19;20003;-71
2024/03/27 02:43:30;;;;;;;8.20;4.80;;;;;;;0.37;100.00;95711.22;6105342;19;20309;-71
2024/03/27 02:45:31;;;;;;;6.40;4.38;;;;;;;0.34;100.00;95712.78;6105422;19;20590;-71
2024/03/27 02:47:31;;;;;;;11.25;5.22;;;;;;;0.38;100.00;95708.13;6105381;19;20014;-71
2024/03/27 02:49:32;;;;;;;8.43;5.07;;;;;;;0.47;100.00;95705.06;6105751;19;20019;-72
2024/03/27 02:51:32;;;;;;;6.65;4.28;;;;;;;0.51;100.00;95695.00;6105494;19;20114;-71
2024/03/27 02:53:33;;;;;;;7.45;5.18;;;;;;;0.56;100.00;95684.53;6105431;19;20006;-72
2024/03/27 02:55:33;;;;;;;9.07;4.70;;;;;;;0.52;100.00;95670.13;6106621;19;20009;-71
2024/03/27 02:57:33;;;;;;;6.82;4.55;;;;;;;0.50;100.00;95667.03;6103887;19;20143;-71
2024/03/27 02:59:34;;;;;;;8.02;4.97;;;;;;;0.54;100.00;95662.38;6104903;19;20017;-72
2024/03/27 03:01:34;;;;;;;11.20;4.90;;;;;;;0.59;100.00;95653.06;6105698;19;20006;-72
2024/03/27 03:03:34;;;;;;;13.32;5.43;;;;;;;0.57;100.00;95644.50;6105704;19;20344;-72
2024/03/27 03:05:35;;;;;;;7.88;4.75;;;;;;;0.48;100.00;95641.34;6105500;19;20003;-72
2024/03/27 03:07:35;;;;;;;9.70;5.97;;;;;;;0.46;100.00;95644.44;6104389;19;20045;-72
2024/03/27 03:09:36;;;;;;;10.93;5.93;;;;;;;0.40;100.00;95637.81;6105657;19;20003;-72
2024/03/27 03:11:36;;;;;;;12.25;6.80;;;;;;;0.34;100.00;95638.56;6105303;19;20003;-72
2024/03/27 03:13:36;;;;;;;12.90;6.93;;;;;;;0.32;100.00;95647.09;6105786;19;20451;-72
2024/03/27 03:15:37;;;;;;;10.70;6.70;;;;;;;0.28;100.00;95643.56;6102895;19;20051;-72
2024/03/27 03:17:37;;;;;;;18.90;7.25;;;;;;;0.23;100.00;95644.69;6103425;19;21016;-72
2024/03/27 03:19:37;;;;;;;11.57;7.07;;;;;;;0.22;100.00;95645.88;6110640;19;20451;-72
2024/03/27 03:21:38;;;;;;;9.15;5.97;;;;;;;0.18;100.00;95644.31;6111317;19;20010;-72
2024/03/27 03:23:38;;;;;;;7.43;5.32;;;;;;;0.16;100.00;95650.09;6110905;19;20018;-72
2024/03/27 03:25:39;;;;;;;9.68;5.90;;;;;;;0.12;100.00;95657.47;6110694;19;20009;-71
2024/03/27 03:27:39;;;;;;;7.68;5.07;;;;;;;0.16;100.00;95655.53;6109417;19;20009;-71
2024/03/27 03:29:40;;;;;;;10.27;5.18;;;;;;;0.12;100.00;95656.69;6110509;19;20002;-72
2024/03/27 03:31:40;;;;;;;10.68;5.93;;;;;;;0.09;100.00;95646.56;6110430;19;19999;-72
2024/03/27 03:33:40;;;;;;;11.48;6.10;;;;;;;0.08;100.00;95623.25;6111396;19;20062;-72
2024/03/27 03:35:40;;;;;;;9.20;5.78;;;;;;;0.10;100.00;95621.72;6109253;19;20082;-72
2024/03/27 03:37:41;;;;;;;9.10;5.95;;;;;;;0.09;100.00;95619.38;6109806;19;20637;-72
2024/03/27 03:39:41;;;;;;;10.18;6.13;;;;;;;0.06;100.00;95625.56;6110453;19;20006;-71
2024/03/27 03:41:41;;;;;;;10.52;6.13;;;;;;;0.05;100.00;95626.72;6110756;19;20006;-71
2024/03/27 03:43:42;;;;;;;10.45;5.93;;;;;;;0.04;100.00;95625.16;6109332;19;20003;-71
2024/03/27 03:45:43;;;;;;;10.15;5.68;;;;;;;0.05;100.00;95613.13;6110682;19;20074;-72
2024/03/27 03:47:43;;;;;;;12.38;6.63;;;;;;;0.00;100.00;95622.44;6110059;19;19999;-72
2024/03/27 03:49:43;;;;;;;9.63;5.57;;;;;;;-0.02;100.00;95625.50;6109543;19;20009;-71
2024/03/27 03:51:44;;;;;;;9.25;6.28;;;;;;;0.00;100.00;95617.00;6110397;19;20070;-72
2024/03/27 03:53:44;;;;;;;9.27;6.18;;;;;;;0.08;100.00;95628.69;6110471;19;20011;-72
2024/03/27 03:55:44;;;;;;;11.90;5.93;;;;;;;0.09;100.00;95630.25;6109661;19;20071;-72
2024/03/27 03:57:45;;;;;;;8.98;5.47;;;;;;;0.11;100.00;95633.38;6108011;19;20086;-71
2024/03/27 03:59:45;;;;;;;8.63;5.22;;;;;;;0.12;100.00;95630.28;6110859;19;19999;-71
2024/03/27 04:01:45;;;;;;;8.77;5.63;;;;;;;0.08;100.00;95621.28;6109581;19;20024;-71
2024/03/27 04:03:45;;;;;;;11.85;6.40;;;;;;;0.10;100.00;95621.72;6109206;19;19999;-72
2024/03/27 04:05:46;;;;;;;8.93;5.75;;;;;;;0.08;100.00;95615.09;6109656;19;20006;-72
2024/03/27 04:07:47;;;;;;;12.65;6.38;;;;;;;0.06;100.00;95598.38;6109132;19;20384;-72
2024/03/27 04:09:47;;;;;;;11.15;6.00;;;;;;;0.06;100.00;95604.59;6109574;19;20007;-72
2024/03/27 04:11:47;;;;;;;10.20;5.97;;;;;;;0.05;100.00;95607.69;6109865;19;20389;-72
2024/03/27 04:13:48;;;;;;;13.10;6.32;;;;;;;0.06;100.00;95609.25;6108691;19;20010;-72
2024/03/27 04:15:48;;;;;;;10.50;6.18;;;;;;;0.05;100.00;95618.56;6108846;19;19999;-72
2024/03/27 04:17:48;;;;;;;12.23;5.88;;;;;;;0.06;100.00;95611.97;6107749;19;20073;-72
2024/03/27 04:19:49;;;;;;;8.65;5.95;;;;;;;0.08;100.00;95602.28;6110424;19;20066;-71
2024/03/27 04:21:49;;;;;;;8.73;5.75;;;;;;;0.06;100.00;95610.03;6108705;19;20124;-71
2024/03/27 04:23:50;;;;;;;11.23;6.75;;;;;;;0.05;100.00;95602.25;6109315;19;20002;-72
2024/03/27 04:25:50;;;;;;;8.90;5.95;;;;;;;0.04;100.00;95612.34;6108976;19;20003;-71
2024/03/27 04:27:51;;;;;;;10.60;6.38;;;;;;;0.02;100.00;95600.31;6107574;19;19999;-70
2024/03/27 04:29:54;;;;;;;9.15;6.22;;;;;;;0.08;100.00;95609.66;6108157;19;20031;-71
2024/03/27 04:31:55;;;;;;;13.13;6.00;;;;;;;0.22;100.00;95624.09;6109530;19;20001;-71
2024/03/27 04:33:55;;;;;;;9.88;5.88;;;;;;;0.35;100.00;95634.69;6108884;19;20506;-72
2024/03/27 04:35:55;;;;;;;8.90;5.43;;;;;;;0.38;100.00;95637.41;6108842;19;20022;-72
2024/03/27 04:37:56;;;;;;;9.32;5.65;;;;;;;0.36;100.00;95631.56;6107170;19;20009;-72
2024/03/27 04:39:56;;;;;;;8.48;5.20;;;;;;;0.36;100.00;95639.72;6109228;19;20006;-72
2024/03/27 04:41:57;;;;;;;10.77;5.45;;;;;;;0.35;100.00;95638.19;6108574;19;20041;-72
2024/03/27 04:43:58;;;;;;;11.88;6.88;;;;;;;0.35;100.00;95631.97;6108952;19;20010;-72
2024/03/27 04:45:58;;;;;;;11.73;7.25;;;;;;;0.35;100.00;95634.69;6107821;19;20003;-72
2024/03/27 04:47:58;;;;;;;11.43;6.20;;;;;;;0.32;100.00;95628.03;6107939;19;20062;-71
2024/03/27 04:49:59;;;;;;;9.10;5.47;;;;;;;0.33;100.00;95626.09;6108252;19;20009;-72
2024/03/27 04:51:59;;;;;;;9.05;5.97;;;;;;;0.31;100.00;95625.72;6108803;19;20377;-72
2024/03/27 04:53:59;;;;;;;11.13;6.10;;;;;;;0.24;100.00;95621.00;6108709;19;20078;-72
2024/03/27 04:55:59;;;;;;;8.85;5.47;;;;;;;0.19;100.00;95624.09;6107617;19;20007;-72
2024/03/27 04:58:00;;;;;;;8.48;5.20;;;;;;;0.05;100.00;95608.47;6106593;19;20431;-71
2024/03/27 05:00:00;;;;;;;7.18;5.43;;;;;;;0.03;100.00;95605.38;6108817;19;20588;-71
2024/03/27 05:02:01;;;;;;;9.52;6.22;;;;;;;-0.06;100.00;95608.41;6107257;19;20020;-72
2024/03/27 05:04:02;;;;;;;11.70;5.93;;;;;;;-0.15;100.00;95609.91;6107675;19;20013;-72
2024/03/27 05:06:02;;;;;;;17.83;8.57;;;;;;;-0.14;100.00;95603.31;6107331;19;20006;-72
2024/03/27 05:08:03;;;;;;;15.93;8.38;;;;;;;-0.16;100.00;95603.69;6107544;19;20106;-72
2024/03/27 05:10:05;;;;;;;13.88;7.53;;;;;;;-0.14;100.00;95598.66;6096616;19;20333;-72
2024/03/27 05:12:06;;;;;;;9.83;6.13;;;;;;;-0.19;100.00;95601.72;6108952;19;20014;-72
2024/03/27 05:14:06;;;;;;;10.95;5.68;;;;;;;-0.20;100.00;95602.09;6107650;19;20272;-71
2024/03/27 05:16:06;;;;;;;9.27;5.70;;;;;;;-0.18;100.00;95597.06;6107583;19;20391;-72
2024/03/27 05:18:07;;;;;;;11.73;6.00;;;;;;;-0.18;100.00;95606.00;6106799;19;20342;-72
2024/03/27 05:20:08;;;;;;;8.55;5.90;;;;;;;-0.21;100.00;95605.97;6108092;19;20015;-71
2024/03/27 05:22:15;;;;;;;8.35;5.88;;;;;;;-0.20;100.00;95591.22;6107759;19;20018;-72
2024/03/27 05:24:16;;;;;;;12.57;5.95;;;;;;;-0.18;100.00;95602.50;6108122;19;20011;-72
2024/03/27 05:26:16;;;;;;;12.07;6.65;;;;;;;-0.10;100.00;95606.81;6106216;19;20069;-71
2024/03/27 05:28:17;;;;;;;11.98;6.47;;;;;;;-0.13;100.00;95596.72;6106908;19;20037;-72
2024/03/27 05:30:17;;;;;;;16.75;7.85;;;;;;;-0.11;100.00;95602.53;6109323;19;20011;-72
2024/03/27 05:32:18;;;;;;;27.58;14.13;;;;;;;-0.12;100.00;95601.78;6109211;19;20451;-71
2024/03/27 05:34:19;;;;;;;23.65;12.27;;;;;;;-0.07;100.00;95606.09;6108482;19;20042;-71
2024/03/27 05:36:19;;;;;;;15.23;9.25;;;;;;;-0.07;100.00;95609.56;6107777;19;20043;-72
2024/03/27 05:38:20;;;;;;;18.98;10.32;;;;;;;-0.04;100.00;95618.91;6106706;19;20467;-72
2024/03/27 05:40:21;;;;;;;18.88;11.95;;;;;;;0.01;100.00;95631.38;6106214;19;20026;-71
2024/03/27 05:42:21;;;;;;;20.02;10.68;;;;;;;0.08;100.00;95632.16;6105356;19;20033;-71
2024/03/27 05:44:21;;;;;;;19.98;9.68;;;;;;;0.10;100.00;95618.22;6108412;19;20010;-71
2024/03/27 05:46:22;;;;;;;16.27;9.05;;;;;;;0.14;100.00;95610.84;6107094;19;20339;-71
2024/03/27 05:48:23;;;;;;;14.82;7.90;;;;;;;0.16;100.00;95601.16;6107636;19;20003;-71
2024/03/27 05:50:24;;;;;;;12.17;7.33;;;;;;;0.19;100.00;95607.78;6108389;19;20010;-71
2024/03/27 05:52:24;;;;;;;12.32;7.55;;;;;;;0.26;100.00;95610.56;6109235;19;20006;-72
2024/03/27 05:54:24;;;;;;;14.13;8.32;;;;;;;0.33;100.00;95591.53;6107691;19;20107;-71
2024/03/27 05:56:25;;;;;;;14.40;7.47;;;;;;;0.33;100.00;95596.97;6108076;19;20014;-72
2024/03/27 05:58:28;;;;;;;10.70;7.50;;;;;;;0.36;100.00;95596.22;6108542;19;20014;-72
2024/03/27 06:00:28;;;;;;;13.00;7.25;;;;;;;0.38;100.00;95604.00;6108523;19;20462;-71
2024/03/27 06:02:29;;;;;;;12.15;7.10;;;;;;;0.39;100.00;95605.53;6108000;19;20003;-71
2024/03/27 06:04:30;;;;;;;15.18;7.88;;;;;;;0.38;100.00;95614.88;6108495;19;20370;-71
2024/03/27 06:06:30;;;;;;;22.00;12.73;;;;;;;0.38;100.00;95618.38;6108582;19;20010;-72
2024/03/27 06:08:30;;;;;;;12.93;8.20;;;;;;;0.43;100.00;95634.34;6106096;19;20404;-72
2024/03/27 06:10:31;;;;;;;10.77;6.95;;;;;;;0.44;100.00;95640.56;6099678;19;20119;-72
2024/03/27 06:12:31;;;;;;;8.88;6.30;;;;;;;0.50;100.00;95649.91;6100582;19;20013;-71
2024/03/27 06:14:31;;;;;;;11.70;6.47;;;;;;;0.49;100.00;95653.78;6099727;19;20022;-72
2024/03/27 06:16:32;;;;;;;12.30;6.50;;;;;;;0.51;100.00;95649.53;6097805;19;20023;-72
2024/03/27 06:18:32;;;;;;;9.60;6.35;;;;;;;0.59;100.00;95649.56;6099907;19;20010;-71
2024/03/27 06:20:32;;;;;;;14.43;6.45;;;;;;;0.61;100.00;95641.81;6099792;19;20007;-71
2024/03/27 06:22:33;;;;;;;10.07;6.68;;;;;;;0.64;100.00;95654.63;6099973;19;20013;-71
2024/03/27 06:24:33;;;;;;;9.20;6.00;;;;;;;0.63;100.00;95653.84;6099867;19;20212;-71
2024/03/27 06:26:34;;;;;;;10.02;6.18;;;;;;;0.66;100.00;95647.63;6099262;19;20006;-72
2024/03/27 06:28:35;;;;;;;9.95;6.47;;;;;;;0.75;100.00;95647.31;6099360;19;20463;-72
2024/03/27 06:30:38;;;;;;;10.40;6.75;;;;;;;0.75;100.00;95639.16;6100128;19;20073;-72
2024/03/27 06:32:40;;;;;;;11.00;6.28;;;;;;;0.80;100.00;95644.19;6099921;19;20239;-72
2024/03/27 06:34:40;;;;;;;11.02;6.28;;;;;;;0.86;100.00;95645.41;6099433;19;20014;-72
2024/03/27 06:36:40;;;;;;;11.90;7.20;;;;;;;0.94;100.00;95638.03;6098436;19;20014;-72
2024/03/27 06:38:41;;;;;;;10.63;6.32;;;;;;;1.01;100.00;95622.50;6098264;19;20010;-72
2024/03/27 06:40:42;;;;;;;10.63;6.00;;;;;;;1.11;100.00;95638.09;6100201;19;20003;-72
2024/03/27 06:42:42;;;;;;;9.57;5.88;;;;;;;1.18;100.00;95642.78;6096451;19;20404;-72
2024/03/27 06:44:44;;;;;;;8.15;5.82;;;;;;;1.24;100.00;95643.97;6094340;19;20330;-72
2024/03/27 06:46:45;;;;;;;8.65;6.07;;;;;;;1.30;100.00;95647.06;6096823;19;19998;-72
2024/03/27 06:48:51;;;;;;;11.25;5.95;;;;;;;1.38;100.00;95651.38;6093062;19;20002;-72
2024/03/27 06:50:53;;;;;;;9.40;5.47;;;;;;;1.47;100.00;95651.00;6098044;19;20463;-71
2024/03/27 06:52:53;;;;;;;10.40;6.03;;;;;;;1.56;100.00;95644.00;6097528;19;20003;-70
2024/03/27 06:54:54;;;;;;;10.13;5.88;;;;;;;1.67;100.00;95649.47;6102916;19;20263;-71
2024/03/27 06:56:54;;;;;;;12.13;6.15;;;;;;;1.72;100.00;95651.78;6102040;19;20714;-71
2024/03/27 06:58:54;;;;;;;10.27;6.28;;;;;;;1.81;100.00;95643.22;6101022;19;20066;-71
2024/03/27 07:00:55;;;;;;;9.95;5.72;;;;;;;1.85;100.00;95647.53;6104306;19;20024;-71
2024/03/27 07:02:55;;;;;;;13.23;6.28;;;;;;;1.93;100.00;95651.81;6105126;19;20002;-70
2024/03/27 07:04:55;;;;;;;11.38;6.20;;;;;;;1.97;100.00;95649.84;6102315;19;20039;-71
2024/03/27 07:06:55;;;;;;;13.38;6.55;;;;;;;2.06;100.00;95643.97;6102632;19;20280;-72
2024/03/27 07:08:56;;;;;;;11.05;6.65;;;;;;;2.17;100.00;95649.44;6105242;19;20345;-72
2024/03/27 07:11:03;;;;;;;11.98;6.65;;;;;;;2.29;100.00;95640.06;6112812;19;20002;-72
2024/03/27 07:13:04;;;;;;;16.88;7.03;;;;;;;2.41;100.00;95636.94;6111318;19;20470;-72
2024/03/27 07:15:06;;;;;;;10.90;6.68;;;;;;;2.51;100.00;95633.41;6112110;19;20006;-71
2024/03/27 07:17:06;;;;;;;19.02;10.23;;;;;;;2.62;100.00;95628.66;6108831;19;20111;-71
2024/03/27 07:19:06;;;;;;;19.25;8.75;;;;;;;2.69;100.00;95625.91;6112845;19;20319;-72
2024/03/27 07:21:07;;;;;;;16.50;8.68;;;;;;;2.79;100.00;95619.63;6111058;19;20018;-71
2024/03/27 07:23:07;;;;;;;13.10;8.15;;;;;;;2.84;100.00;95623.91;6112037;19;20039;-72
2024/03/27 07:25:09;;;;;;;15.27;7.78;;;;;;;2.86;100.00;95618.84;6112719;19;20014;-70
2024/03/27 07:27:10;;;;;;;13.07;8.17;;;;;;;2.94;100.00;95616.84;6111268;19;20431;-71
2024/03/27 07:29:10;;;;;;;16.55;8.48;;;;;;;3.08;100.00;95608.59;6111974;19;20628;-71
2024/03/27 07:31:10;;;;;;;12.25;7.82;;;;;;;3.17;100.00;95600.72;6112357;19;20007;-72
2024/03/27 07:33:11;;;;;;;15.38;7.43;;;;;;;3.33;100.00;95594.78;6111177;19;20013;-71
2024/03/27 07:35:11;;;;;;;11.23;6.55;;;;;;;3.49;100.00;95589.59;6109764;19;20003;-71
2024/03/27 07:37:11;;;;;;;11.05;6.55;;;;;;;3.65;100.00;95595.31;6109456;19;20034;-71
2024/03/27 07:39:12;;;;;;;14.23;7.03;;;;;;;3.78;100.00;95590.13;6112471;19;20010;-71
2024/03/27 07:41:12;;;;;;;13.65;6.72;;;;;;;3.88;100.00;95586.50;6111604;19;20499;-70
2024/03/27 07:43:13;;;;;;;10.52;6.90;;;;;;;4.02;100.00;95585.63;6111618;19;20002;-71
2024/03/27 07:45:13;;;;;;;11.60;6.22;;;;;;;4.13;100.00;95582.78;6110753;19;20013;-71
2024/03/27 07:47:13;;;;;;;12.57;7.07;;;;;;;4.21;100.00;95584.25;6110777;19;20011;-71
2024/03/27 07:49:14;;;;;;;9.70;7.00;;;;;;;4.31;100.00;95588.88;6111621;19;20010;-71
2024/03/27 07:51:14;;;;;;;12.20;7.35;;;;;;;4.42;100.00;95592.25;6111378;19;20031;-71
2024/03/27 07:53:14;;;;;;;17.45;9.20;;;;;;;4.50;100.00;95595.69;6111183;19;20046;-71
2024/03/27 07:55:15;;;;;;;17.15;8.80;;;;;;;4.58;100.00;95590.91;6111753;19;20091;-72
2024/03/27 07:57:15;;;;;;;15.77;8.95;;;;;;;4.67;100.00;95582.97;6108850;19;20070;-70
2024/03/27 07:59:15;;;;;;;12.95;7.97;;;;;;;4.79;100.00;95585.16;6112061;19;20131;-71
2024/03/27 08:01:16;;;;;;;11.00;7.40;;;;;;;4.88;100.00;95577.25;6107808;19;20082;-71
2024/03/27 08:03:17;;;;;;;14.98;8.32;;;;;;;4.92;100.00;95577.97;6109135;19;20582;-71
2024/03/27 08:05:18;;;;;;;10.68;7.82;;;;;;;4.94;100.00;95583.03;6109928;19;20038;-71
2024/03/27 08:07:19;;;;;;;11.38;7.38;;;;;;;4.98;100.00;95576.34;6109595;19;20010;-71
2024/03/27 08:09:19;;;;;;;13.55;7.07;;;;;;;5.07;100.00;95579.34;6110869;19;20009;-71
2024/03/27 08:11:22;;;;;;;20.38;11.73;;;;;;;5.15;100.00;95569.06;6110317;19;20065;-71
2024/03/27 08:13:22;;;;;;;33.10;16.30;;;;;;;5.21;100.00;95567.41;6110803;19;20014;-71
2024/03/27 08:15:23;;;;;;;15.85;8.65;;;;;;;5.33;100.00;95566.84;6110659;19;20476;-71
2024/03/27 08:17:23;;;;;;;13.15;7.07;;;;;;;5.47;100.00;95552.13;6109524;19;20006;-71
2024/03/27 08:19:23;;;;;;;11.02;8.10;;;;;;;5.55;100.00;95552.81;6110420;19;20024;-71
2024/03/27 08:21:24;;;;;;;11.65;7.82;;;;;;;5.66;100.00;95556.16;6111361;19;20459;-71
2024/03/27 08:23:24;;;;;;;16.58;8.82;;;;;;;5.71;100.00;95563.91;6111386;19;20009;-71
2024/03/27 08:25:24;;;;;;;13.00;7.75;;;;;;;5.82;100.00;95563.72;6111012;19;20367;-71
2024/03/27 08:27:25;;;;;;;14.45;8.68;;;;;;;5.88;100.00;95556.56;6108596;19;20021;-71
2024/03/27 08:29:25;;;;;;;21.13;11.68;;;;;;;5.95;100.00;95558.44;6110498;19;20027;-71
2024/03/27 08:31:26;;;;;;;19.08;11.00;;;;;;;6.03;100.00;95555.16;6110574;19;20338;-71
2024/03/27 08:33:26;;;;;;;20.08;11.82;;;;;;;6.15;100.00;95556.53;6111064;19;20007;-71
2024/03/27 08:35:26;;;;;;;12.85;7.80;;;;;;;6.18;100.00;95553.69;6108102;19;20003;-71
2024/03/27 08:37:27;;;;;;;12.50;8.25;;;;;;;6.24;100.00;95550.47;6108300;19;20007;-71
2024/03/27 08:39:27;;;;;;;9.63;6.35;;;;;;;6.38;100.00;95555.72;6111331;19;20446;-71
2024/03/27 08:41:27;;;;;;;9.88;6.38;;;;;;;6.45;100.00;95558.31;6110142;19;20026;-71
2024/03/27 08:43:28;;;;;;;11.60;6.38;;;;;;;6.50;100.00;95552.31;6109849;19;20300;-71
2024/03/27 08:45:28;;;;;;;8.73;5.90;;;;;;;6.57;100.00;95554.16;6111159;19;20006;-71
2024/03/27 08:47:30;;;;;;;9.43;5.90;;;;;;;6.64;100.00;95549.31;6109595;19;20523;-71
2024/03/27 08:49:30;;;;;;;11.87;6.50;;;;;;;6.69;100.00;95543.31;6109843;19;20360;-71
2024/03/27 08:51:31;;;;;;;9.32;5.95;;;;;;;6.81;100.00;95558.38;6110056;19;20021;-71
2024/03/27 08:53:32;;;;;;;7.95;5.97;;;;;;;6.89;100.00;95548.81;6111184;19;20311;-71
2024/03/27 08:55:38;;;;;;;9.68;5.22;;;;;;;6.98;100.00;95542.72;6110216;19;20014;-71
2024/03/27 08:57:39;;;;;;;8.55;5.57;;;;;;;7.06;100.00;95537.84;6107396;19;20022;-71
2024/03/27 08:59:39;;;;;;;8.65;5.28;;;;;;;7.13;100.00;95538.47;6110333;19;20014;-71
2024/03/27 09:01:40;;;;;;;9.32;5.18;;;;;;;7.22;100.00;95546.91;6110092;19;20016;-71
2024/03/27 09:03:40;;;;;;;7.03;5.28;;;;;;;7.33;100.00;95536.44;6110218;19;20342;-71
2024/03/27 09:05:41;;;;;;;7.32;5.55;;;;;;;7.45;100.00;95536.97;6109508;19;20478;-71
2024/03/27 09:07:41;;;;;;;14.48;6.78;;;;;;;7.54;100.00;95534.41;6108958;19;20480;-71
2024/03/27 09:09:42;;;;;;;7.57;5.60;;;;;;;7.65;100.00;95534.13;6110706;19;20376;-71
2024/03/27 09:11:42;;;;;;;6.70;4.93;;;;;;;7.70;100.00;95528.91;6109785;19;20002;-71
2024/03/27 09:13:42;;;;;;;10.50;6.38;;;;;;;7.81;100.00;95534.91;6109957;19;20002;-71
2024/03/27 09:15:42;;;;;;;7.75;5.70;;;;;;;7.91;100.00;95537.81;6107225;19;20007;-71
2024/03/27 09:17:43;;;;;;;12.13;6.72;;;;;;;7.98;100.00;95538.41;6107434;19;20320;-71
2024/03/27 09:19:43;;;;;;;8.75;6.15;;;;;;;8.11;100.00;95535.75;6109600;19;20245;-71
2024/03/27 09:21:44;;;;;;;10.15;6.25;;;;;;;8.23;100.00;95537.00;6109701;19;20468;-71
2024/03/27 09:23:45;;;;;;;11.38;5.95;;;;;;;8.35;100.00;95530.78;6109886;19;20013;-71